ASN logo
Last updated: 27 July 2021
Statuts:
Date:lundi 16 novembre 2020
Heure:ca 19:50
Type/Sous-type:Silhouette image of generic AT75 model; specific model in this crash may look slightly different
ATR 72-500 (72-212A)
Compagnie:TruJet
Immatriculation: VT-TMM
Numéro de série: 825
Année de Fabrication: 2008-10-10 (12 years 1 months)
Moteurs: 2 Pratt & Whitney Canada PW127F
Equipage:victimes: 0 / à bord:
Passagers:victimes: 0 / à bord:
Total:victimes: 0 / à bord:
Dégats de l'appareil: Substantiels
Lieu de l'accident:Mysore Airport (MYQ) (   Inde)
Phase de vol: A l'atterrissage (LDG)
Nature:Transport de Passagers Nat.
Aéroport de départ:Belgaum-Sambre Airport (IXG/VABM), Inde
Aéroport de destination:Mysore Airport (MYQ/VOMY), Inde
Numéro de vol:2T543
Détails:
An ATR 72-500 (72-212A) operated by TruJet, performed flight 543 from Belgaum to Mysore, India.
On final approach to Mysore, the pilot in command lost sight of the runway because of a sudden increase in the intensity of rain and strong gusty winds. He performed a go-around, during which the aircraft contacted the runway surface.
The crew was unable to retract the landing gear after going around. The flight then diverted to Chennai with the landing gear extended. A normal landing was carried out on runway 07 at Chennai. The aircraft stopped on the runway and sought ATC assistance to tow the aircraft.

Sources:
» BEA

METAR Weather report:
14:00 UTC / 19:30 local time:
VOMY 161400Z 08009KT 4000 -RA FEW008 SCT012 OVC080 23/22 Q1015

15:00 UTC / 20:30 local time:
VOMY 161500Z 14008KT 4000 -RA FEW008 SCT012 OVC080 23/22 Q1016


Photos

Add your photo of this accident or aircraft

Video, social media

Plan
Ce plan montre l'aéroport de départ ainsi que la supposée destination du vol. La ligne fixe reliant les deux aéroports n'est pas le plan de vol exact.
La distance entre Belgaum-Sambre Airport et Mysore Airport est de 449 km (281 miles).

Les informations ci-dessus ne représentent pas l'opinion de la 'Flight Safety Foundation' ou de 'Aviation Safety Network' sur les causes de l'accident. Ces informations prélimimaires sont basées sur les faits tel qu'ils sont connus à ce jour.
languages: languages

Share